createdAt,value
2023-05-13T00:02:36.971Z,58.80
2023-05-13T00:08:08.234Z,58.78
2023-05-13T00:13:34.560Z,58.91
2023-05-13T00:19:12.578Z,59.02
2023-05-13T00:24:50.701Z,58.88
2023-05-13T00:30:28.109Z,58.96
2023-05-13T00:35:55.451Z,59.06
2023-05-13T00:41:23.912Z,59.10
2023-05-13T00:46:56.831Z,59.22
2023-05-13T00:53:04.725Z,59.25
2023-05-13T00:59:35.307Z,59.21
2023-05-13T01:06:33.533Z,59.35
2023-05-13T01:12:28.121Z,59.43
2023-05-13T01:18:37.751Z,59.56
2023-05-13T01:24:10.680Z,59.74
2023-05-13T01:29:39.051Z,59.91
2023-05-13T01:35:05.290Z,60.04
2023-05-13T01:40:33.239Z,60.12
2023-05-13T01:46:15.727Z,60.32
2023-05-13T01:51:41.815Z,60.75
2023-05-13T01:57:07.227Z,61.12
2023-05-13T02:02:41.111Z,61.58
2023-05-13T02:08:08.047Z,70.70
2023-05-13T02:13:41.396Z,79.22
2023-05-13T02:19:10.038Z,74.61
2023-05-13T02:24:40.683Z,68.45
2023-05-13T02:30:11.762Z,64.12
2023-05-13T02:35:39.838Z,61.41
2023-05-13T02:41:26.674Z,52.58
2023-05-13T02:47:11.497Z,49.10
2023-05-13T02:52:52.174Z,49.98
2023-05-13T02:58:20.106Z,51.17
2023-05-13T03:03:51.870Z,52.45
2023-05-13T03:09:26.164Z,54.03
2023-05-13T03:15:22.611Z,55.75
2023-05-13T03:21:13.467Z,56.91
2023-05-13T03:26:51.770Z,58.18
2023-05-13T03:32:32.354Z,59.02
2023-05-13T03:37:59.264Z,59.54
2023-05-13T03:43:38.195Z,60.11
2023-05-13T03:49:09.065Z,60.47
2023-05-13T03:54:40.000Z,60.75
2023-05-13T04:00:28.321Z,61.16
2023-05-13T04:05:56.947Z,71.09
2023-05-13T04:11:25.122Z,75.51
2023-05-13T04:16:52.321Z,70.62
2023-05-13T04:22:29.372Z,66.05
2023-05-13T04:27:54.142Z,61.96
2023-05-13T04:33:31.714Z,53.34
2023-05-13T04:39:17.114Z,49.34
2023-05-13T04:44:45.808Z,49.81
2023-05-13T04:50:15.291Z,50.76
2023-05-13T04:55:46.031Z,52.82
2023-05-13T05:01:13.246Z,53.60
2023-05-13T05:06:38.882Z,54.31
2023-05-13T05:12:05.051Z,55.30
2023-05-13T05:17:44.646Z,55.66
2023-05-13T05:23:12.148Z,56.12
2023-05-13T05:28:52.506Z,56.25
2023-05-13T05:34:27.638Z,56.72
2023-05-13T05:39:53.050Z,56.70
2023-05-13T05:45:21.591Z,57.41
2023-05-13T05:50:46.650Z,57.03
2023-05-13T05:56:21.356Z,56.38
2023-05-13T06:01:46.446Z,56.71
2023-05-13T06:07:15.742Z,57.70
2023-05-13T06:12:59.227Z,58.27
2023-05-13T06:18:44.287Z,57.98
2023-05-13T06:24:11.940Z,57.22
2023-05-13T06:29:38.885Z,56.96
2023-05-13T06:35:03.875Z,56.73
2023-05-13T06:40:35.622Z,56.81
2023-05-13T06:46:02.457Z,56.37
2023-05-13T06:52:01.497Z,56.32
2023-05-13T06:57:47.548Z,56.01
2023-05-13T07:03:14.904Z,56.12
2023-05-13T07:08:50.943Z,55.91
2023-05-13T07:14:25.514Z,55.72
2023-05-13T07:20:02.832Z,55.83
2023-05-13T07:26:24.063Z,55.67
2023-05-13T07:32:43.100Z,55.33
2023-05-13T07:38:51.615Z,54.88
2023-05-13T07:44:25.439Z,54.93
2023-05-13T07:50:01.661Z,54.32
2023-05-13T07:55:29.089Z,53.83
2023-05-13T08:00:55.457Z,53.25
2023-05-13T08:06:23.313Z,53.46
2023-05-13T08:11:51.242Z,53.53
2023-05-13T08:17:25.642Z,53.65
2023-05-13T08:22:50.476Z,53.74
2023-05-13T08:28:18.568Z,53.47
2023-05-13T08:33:47.911Z,52.84
2023-05-13T08:39:12.265Z,53.07
2023-05-13T08:44:45.102Z,53.15
2023-05-13T08:50:12.665Z,52.50
2023-05-13T08:55:43.420Z,52.48
2023-05-13T09:01:10.779Z,52.47
2023-05-13T09:06:41.498Z,52.14
2023-05-13T09:12:06.437Z,52.34
2023-05-13T09:17:39.719Z,52.60
2023-05-13T09:23:11.901Z,52.39
2023-05-13T09:28:37.482Z,52.89
2023-05-13T09:34:06.051Z,53.56
2023-05-13T09:39:40.474Z,53.65
2023-05-13T09:45:16.092Z,53.38
2023-05-13T09:50:54.137Z,53.21
2023-05-13T09:56:24.371Z,53.09
2023-05-13T10:01:54.032Z,53.53
2023-05-13T10:07:26.924Z,53.08
2023-05-13T10:13:15.640Z,52.78
2023-05-13T10:18:46.970Z,52.80
2023-05-13T10:24:38.567Z,53.37
2023-05-13T10:30:39.493Z,53.57
2023-05-13T10:36:27.321Z,53.59
2023-05-13T10:42:31.865Z,53.53
2023-05-13T10:48:07.549Z,53.20
2023-05-13T10:53:36.799Z,53.11
2023-05-13T10:59:05.767Z,53.08
2023-05-13T11:04:30.673Z,52.84
2023-05-13T11:09:55.705Z,53.15
2023-05-13T11:15:24.980Z,53.19
2023-05-13T11:21:10.412Z,52.99
2023-05-13T11:26:59.576Z,52.45
2023-05-13T11:33:15.684Z,51.64
2023-05-13T11:39:28.632Z,50.39
2023-05-13T11:44:58.099Z,48.37
2023-05-13T11:50:35.360Z,46.85
2023-05-13T11:56:22.849Z,46.29
2023-05-13T12:02:01.659Z,46.55
2023-05-13T12:07:39.066Z,45.84
2023-05-13T12:13:04.226Z,46.16
2023-05-13T12:18:34.026Z,45.75
2023-05-13T12:24:22.040Z,45.68
2023-05-13T12:30:28.895Z,45.65
2023-05-13T12:36:13.303Z,45.26
2023-05-13T12:41:44.696Z,44.84
2023-05-13T12:47:28.564Z,44.86
2023-05-13T12:52:58.041Z,43.30
2023-05-13T12:58:50.385Z,42.04
2023-05-13T13:04:32.893Z,41.53
2023-05-13T13:10:02.211Z,41.19
2023-05-13T13:15:44.650Z,39.80
2023-05-13T13:21:14.943Z,39.75
2023-05-13T13:26:50.880Z,38.56
2023-05-13T13:32:18.598Z,38.54
2023-05-13T13:37:43.524Z,38.89
2023-05-13T13:43:10.809Z,39.14
2023-05-13T13:48:49.265Z,38.75
2023-05-13T13:54:39.558Z,39.05
2023-05-13T14:00:49.683Z,39.32
2023-05-13T14:06:56.597Z,39.04
2023-05-13T14:12:53.709Z,38.88
2023-05-13T14:18:18.789Z,39.10
2023-05-13T14:23:43.742Z,39.10
2023-05-13T14:29:08.450Z,39.35
2023-05-13T14:34:33.681Z,39.60
2023-05-13T14:39:58.650Z,39.76
2023-05-13T14:45:24.216Z,39.93
2023-05-13T14:51:08.707Z,40.11
2023-05-13T14:56:32.896Z,40.13
2023-05-13T15:01:57.537Z,40.17
2023-05-13T15:07:29.110Z,40.29
2023-05-13T15:12:59.981Z,40.37
2023-05-13T15:18:25.864Z,40.58
2023-05-13T15:23:59.022Z,40.74
2023-05-13T15:29:23.450Z,40.80
2023-05-13T15:34:48.371Z,40.71
2023-05-13T15:40:51.885Z,40.63
2023-05-13T15:46:26.643Z,40.52
2023-05-13T15:51:54.856Z,40.68
2023-05-13T15:57:31.265Z,40.81
2023-05-13T16:02:58.600Z,40.89
2023-05-13T16:08:23.069Z,40.71
2023-05-13T16:13:47.861Z,40.56
2023-05-13T16:19:16.078Z,40.56
2023-05-13T16:24:50.916Z,40.56
2023-05-13T16:30:17.675Z,40.66
2023-05-13T16:35:55.178Z,40.61
2023-05-13T16:41:19.839Z,40.83
2023-05-13T16:46:44.876Z,41.05
2023-05-13T16:52:22.596Z,41.28
2023-05-13T16:57:58.829Z,41.75
2023-05-13T17:03:56.166Z,42.25
2023-05-13T17:09:28.319Z,42.74
2023-05-13T17:14:59.208Z,43.07
2023-05-13T17:20:24.095Z,43.33
2023-05-13T17:26:00.767Z,43.55
2023-05-13T17:31:49.334Z,43.59
2023-05-13T17:37:22.420Z,43.70
2023-05-13T17:42:47.461Z,43.78
2023-05-13T17:48:12.725Z,43.81
2023-05-13T17:53:37.671Z,43.93
2023-05-13T17:59:06.319Z,44.12
2023-05-13T18:04:32.868Z,44.26
2023-05-13T18:10:06.543Z,44.43
2023-05-13T18:15:31.895Z,44.68
2023-05-13T18:20:58.836Z,44.88
2023-05-13T18:26:23.623Z,45.12
2023-05-13T18:31:48.428Z,45.44
2023-05-13T18:37:16.725Z,45.70
2023-05-13T18:42:41.422Z,46.09
2023-05-13T18:48:06.691Z,46.43
2023-05-13T18:53:31.461Z,46.78
2023-05-13T18:58:56.139Z,47.06
2023-05-13T19:04:21.843Z,47.43
2023-05-13T19:10:10.904Z,47.87
2023-05-13T19:15:35.833Z,48.27
2023-05-13T19:21:03.107Z,49.13
2023-05-13T19:26:27.335Z,49.37
2023-05-13T19:31:52.857Z,49.62
2023-05-13T19:37:20.608Z,49.87
2023-05-13T19:42:45.815Z,50.17
2023-05-13T19:48:30.704Z,50.56
2023-05-13T19:54:09.927Z,50.91
2023-05-13T19:59:52.191Z,51.32
2023-05-13T20:05:19.519Z,51.67
2023-05-13T20:10:45.372Z,52.12
2023-05-13T20:16:10.425Z,52.42
2023-05-13T20:21:34.895Z,52.96
2023-05-13T20:27:01.863Z,53.34
2023-05-13T20:32:26.283Z,53.67
2023-05-13T20:37:50.764Z,54.05
2023-05-13T20:43:17.563Z,54.24
2023-05-13T20:48:42.290Z,54.32
2023-05-13T20:54:14.167Z,54.31
2023-05-13T20:59:38.847Z,54.69
2023-05-13T21:05:04.085Z,55.11
2023-05-13T21:10:28.440Z,55.47
2023-05-13T21:15:53.576Z,55.65
2023-05-13T21:21:19.964Z,55.88
2023-05-13T21:26:50.080Z,56.05
2023-05-13T21:32:15.484Z,56.38
2023-05-13T21:37:41.185Z,56.67
2023-05-13T21:43:09.241Z,56.90
2023-05-13T21:48:34.689Z,57.29
2023-05-13T21:53:59.951Z,57.38
2023-05-13T21:59:26.628Z,57.74
2023-05-13T22:04:51.499Z,57.87
2023-05-13T22:10:27.380Z,58.11
2023-05-13T22:15:55.600Z,58.35
2023-05-13T22:21:20.875Z,58.58
2023-05-13T22:26:46.769Z,58.51
2023-05-13T22:32:11.740Z,58.72
2023-05-13T22:37:42.784Z,58.90
2023-05-13T22:43:07.259Z,59.02
2023-05-13T22:48:32.223Z,59.24
2023-05-13T22:53:57.291Z,59.25
2023-05-13T22:59:23.634Z,59.40
2023-05-13T23:04:47.790Z,59.63
2023-05-13T23:10:12.257Z,59.95
2023-05-13T23:15:40.009Z,60.28
2023-05-13T23:21:04.953Z,60.44
2023-05-13T23:26:30.182Z,60.53
2023-05-13T23:31:58.764Z,60.64
2023-05-13T23:37:22.989Z,61.08
2023-05-13T23:42:47.774Z,61.34
2023-05-13T23:48:21.725Z,61.33
2023-05-13T23:53:50.079Z,61.39
2023-05-13T23:59:39.048Z,61.52
